sensor_id;sensor_type;location;lat;lon;timestamp;P1;durP1;ratioP1;P2;durP2;ratioP2
64235;SDS011;50564;47.402;9.740;2023-05-07T00:03:26;4.43;;;2.65;;
64235;SDS011;50564;47.402;9.740;2023-05-07T00:08:27;6.63;;;2.78;;
64235;SDS011;50564;47.402;9.740;2023-05-07T00:13:28;3.65;;;2.17;;
64235;SDS011;50564;47.402;9.740;2023-05-07T00:18:30;5.40;;;2.67;;
64235;SDS011;50564;47.402;9.740;2023-05-07T00:23:31;3.67;;;2.03;;
64235;SDS011;50564;47.402;9.740;2023-05-07T00:28:32;4.68;;;2.17;;
64235;SDS011;50564;47.402;9.740;2023-05-07T00:33:32;2.75;;;2.10;;
64235;SDS011;50564;47.402;9.740;2023-05-07T00:38:33;3.38;;;2.13;;
64235;SDS011;50564;47.402;9.740;2023-05-07T00:43:33;3.35;;;2.05;;
64235;SDS011;50564;47.402;9.740;2023-05-07T00:48:34;2.95;;;1.83;;
64235;SDS011;50564;47.402;9.740;2023-05-07T00:53:35;4.13;;;1.73;;
64235;SDS011;50564;47.402;9.740;2023-05-07T00:58:35;3.58;;;1.60;;
64235;SDS011;50564;47.402;9.740;2023-05-07T01:03:36;5.63;;;1.70;;
64235;SDS011;50564;47.402;9.740;2023-05-07T01:08:37;2.70;;;2.10;;
64235;SDS011;50564;47.402;9.740;2023-05-07T01:13:39;2.25;;;1.40;;
64235;SDS011;50564;47.402;9.740;2023-05-07T01:18:40;3.63;;;1.40;;
64235;SDS011;50564;47.402;9.740;2023-05-07T01:23:41;5.25;;;1.88;;
64235;SDS011;50564;47.402;9.740;2023-05-07T01:28:42;3.35;;;1.67;;
64235;SDS011;50564;47.402;9.740;2023-05-07T01:33:42;3.65;;;1.60;;
64235;SDS011;50564;47.402;9.740;2023-05-07T01:38:44;4.38;;;1.95;;
64235;SDS011;50564;47.402;9.740;2023-05-07T01:43:46;2.92;;;1.50;;
64235;SDS011;50564;47.402;9.740;2023-05-07T01:48:47;2.47;;;1.83;;
64235;SDS011;50564;47.402;9.740;2023-05-07T01:53:48;3.03;;;1.90;;
64235;SDS011;50564;47.402;9.740;2023-05-07T01:58:52;2.83;;;1.60;;
64235;SDS011;50564;47.402;9.740;2023-05-07T02:03:53;3.38;;;1.50;;
64235;SDS011;50564;47.402;9.740;2023-05-07T02:08:58;3.58;;;1.77;;
64235;SDS011;50564;47.402;9.740;2023-05-07T02:13:58;5.32;;;2.30;;
64235;SDS011;50564;47.402;9.740;2023-05-07T02:18:59;4.10;;;2.25;;
64235;SDS011;50564;47.402;9.740;2023-05-07T02:24:00;4.22;;;2.30;;
64235;SDS011;50564;47.402;9.740;2023-05-07T02:29:01;6.55;;;2.05;;
64235;SDS011;50564;47.402;9.740;2023-05-07T02:34:01;5.22;;;1.83;;
64235;SDS011;50564;47.402;9.740;2023-05-07T02:39:02;2.50;;;1.67;;
64235;SDS011;50564;47.402;9.740;2023-05-07T02:44:03;5.55;;;2.00;;
64235;SDS011;50564;47.402;9.740;2023-05-07T02:49:05;4.35;;;1.90;;
64235;SDS011;50564;47.402;9.740;2023-05-07T02:54:06;3.35;;;1.92;;
64235;SDS011;50564;47.402;9.740;2023-05-07T02:59:07;3.40;;;1.85;;
64235;SDS011;50564;47.402;9.740;2023-05-07T03:04:12;4.22;;;1.50;;
64235;SDS011;50564;47.402;9.740;2023-05-07T03:09:13;6.28;;;2.30;;
64235;SDS011;50564;47.402;9.740;2023-05-07T03:14:13;2.47;;;2.13;;
64235;SDS011;50564;47.402;9.740;2023-05-07T03:19:14;4.78;;;2.17;;
64235;SDS011;50564;47.402;9.740;2023-05-07T03:24:15;3.67;;;1.70;;
64235;SDS011;50564;47.402;9.740;2023-05-07T03:29:16;2.85;;;1.58;;
64235;SDS011;50564;47.402;9.740;2023-05-07T03:34:16;2.35;;;1.33;;
64235;SDS011;50564;47.402;9.740;2023-05-07T03:39:22;3.88;;;1.52;;
64235;SDS011;50564;47.402;9.740;2023-05-07T03:44:23;2.10;;;1.70;;
64235;SDS011;50564;47.402;9.740;2023-05-07T03:49:25;2.25;;;1.75;;
64235;SDS011;50564;47.402;9.740;2023-05-07T03:54:26;4.07;;;1.83;;
64235;SDS011;50564;47.402;9.740;2023-05-07T03:59:26;4.18;;;1.63;;
64235;SDS011;50564;47.402;9.740;2023-05-07T04:04:27;3.08;;;1.77;;
64235;SDS011;50564;47.402;9.740;2023-05-07T04:09:30;2.65;;;1.88;;
64235;SDS011;50564;47.402;9.740;2023-05-07T04:14:31;2.85;;;2.10;;
64235;SDS011;50564;47.402;9.740;2023-05-07T04:19:33;4.32;;;2.13;;
64235;SDS011;50564;47.402;9.740;2023-05-07T04:24:34;2.13;;;1.48;;
64235;SDS011;50564;47.402;9.740;2023-05-07T04:29:36;4.32;;;1.55;;
64235;SDS011;50564;47.402;9.740;2023-05-07T04:34:37;2.28;;;1.33;;
64235;SDS011;50564;47.402;9.740;2023-05-07T04:39:38;1.42;;;1.30;;
64235;SDS011;50564;47.402;9.740;2023-05-07T04:44:38;3.97;;;1.48;;
64235;SDS011;50564;47.402;9.740;2023-05-07T04:49:39;2.67;;;2.05;;
64235;SDS011;50564;47.402;9.740;2023-05-07T04:54:42;4.25;;;2.00;;
64235;SDS011;50564;47.402;9.740;2023-05-07T04:59:43;2.47;;;1.20;;
64235;SDS011;50564;47.402;9.740;2023-05-07T05:04:45;3.85;;;1.60;;
64235;SDS011;50564;47.402;9.740;2023-05-07T05:09:45;3.17;;;1.63;;
64235;SDS011;50564;47.402;9.740;2023-05-07T05:14:46;4.38;;;1.73;;
64235;SDS011;50564;47.402;9.740;2023-05-07T05:19:48;3.05;;;1.60;;
64235;SDS011;50564;47.402;9.740;2023-05-07T05:24:48;5.00;;;2.78;;
64235;SDS011;50564;47.402;9.740;2023-05-07T05:29:49;4.80;;;2.67;;
64235;SDS011;50564;47.402;9.740;2023-05-07T05:34:50;4.18;;;2.08;;
64235;SDS011;50564;47.402;9.740;2023-05-07T05:39:51;2.67;;;1.73;;
64235;SDS011;50564;47.402;9.740;2023-05-07T05:44:53;3.10;;;1.40;;
64235;SDS011;50564;47.402;9.740;2023-05-07T05:49:54;2.83;;;1.77;;
64235;SDS011;50564;47.402;9.740;2023-05-07T05:54:55;3.13;;;1.35;;
64235;SDS011;50564;47.402;9.740;2023-05-07T05:59:55;2.13;;;1.58;;
64235;SDS011;50564;47.402;9.740;2023-05-07T06:04:57;4.47;;;1.90;;
64235;SDS011;50564;47.402;9.740;2023-05-07T06:09:58;3.63;;;1.75;;
64235;SDS011;50564;47.402;9.740;2023-05-07T06:14:59;3.90;;;1.50;;
64235;SDS011;50564;47.402;9.740;2023-05-07T06:20:00;2.35;;;1.73;;
64235;SDS011;50564;47.402;9.740;2023-05-07T06:25:01;5.78;;;2.15;;
64235;SDS011;50564;47.402;9.740;2023-05-07T06:30:03;3.42;;;1.80;;
64235;SDS011;50564;47.402;9.740;2023-05-07T06:35:04;3.17;;;1.90;;
64235;SDS011;50564;47.402;9.740;2023-05-07T06:40:05;4.15;;;1.60;;
64235;SDS011;50564;47.402;9.740;2023-05-07T06:45:09;2.22;;;1.45;;
64235;SDS011;50564;47.402;9.740;2023-05-07T06:50:10;3.72;;;1.65;;
64235;SDS011;50564;47.402;9.740;2023-05-07T06:55:11;3.58;;;2.30;;
64235;SDS011;50564;47.402;9.740;2023-05-07T07:00:12;3.65;;;2.47;;
64235;SDS011;50564;47.402;9.740;2023-05-07T07:05:24;1.98;;;1.70;;
64235;SDS011;50564;47.402;9.740;2023-05-07T07:10:26;1.98;;;1.40;;
64235;SDS011;50564;47.402;9.740;2023-05-07T07:15:28;2.63;;;1.98;;
64235;SDS011;50564;47.402;9.740;2023-05-07T07:20:30;4.03;;;1.50;;
64235;SDS011;50564;47.402;9.740;2023-05-07T07:25:31;3.45;;;2.30;;
64235;SDS011;50564;47.402;9.740;2023-05-07T07:30:32;5.35;;;1.52;;
64235;SDS011;50564;47.402;9.740;2023-05-07T07:35:33;2.63;;;1.70;;
64235;SDS011;50564;47.402;9.740;2023-05-07T07:40:34;2.05;;;1.50;;
64235;SDS011;50564;47.402;9.740;2023-05-07T07:45:36;4.40;;;1.50;;
64235;SDS011;50564;47.402;9.740;2023-05-07T07:50:37;1.77;;;1.23;;
64235;SDS011;50564;47.402;9.740;2023-05-07T07:55:40;1.83;;;1.33;;
64235;SDS011;50564;47.402;9.740;2023-05-07T08:00:41;1.88;;;1.08;;
64235;SDS011;50564;47.402;9.740;2023-05-07T08:05:42;2.80;;;1.70;;
64235;SDS011;50564;47.402;9.740;2023-05-07T08:10:44;1.80;;;1.38;;
64235;SDS011;50564;47.402;9.740;2023-05-07T08:15:52;2.88;;;2.00;;
64235;SDS011;50564;47.402;9.740;2023-05-07T08:20:53;3.08;;;2.00;;
64235;SDS011;50564;47.402;9.740;2023-05-07T08:25:57;3.45;;;1.75;;
64235;SDS011;50564;47.402;9.740;2023-05-07T08:30:57;2.97;;;1.40;;
64235;SDS011;50564;47.402;9.740;2023-05-07T08:36:01;3.47;;;1.48;;
64235;SDS011;50564;47.402;9.740;2023-05-07T08:41:03;2.00;;;1.20;;
64235;SDS011;50564;47.402;9.740;2023-05-07T08:46:05;2.28;;;1.10;;
64235;SDS011;50564;47.402;9.740;2023-05-07T08:51:16;2.90;;;1.33;;
64235;SDS011;50564;47.402;9.740;2023-05-07T08:56:19;3.60;;;1.35;;
64235;SDS011;50564;47.402;9.740;2023-05-07T09:01:21;2.08;;;1.20;;
64235;SDS011;50564;47.402;9.740;2023-05-07T09:06:25;2.78;;;1.23;;
64235;SDS011;50564;47.402;9.740;2023-05-07T09:11:27;3.92;;;1.38;;
64235;SDS011;50564;47.402;9.740;2023-05-07T09:16:30;2.75;;;1.40;;
64235;SDS011;50564;47.402;9.740;2023-05-07T09:21:32;2.97;;;1.33;;
64235;SDS011;50564;47.402;9.740;2023-05-07T09:26:36;2.83;;;1.00;;
64235;SDS011;50564;47.402;9.740;2023-05-07T09:31:38;2.58;;;1.30;;
64235;SDS011;50564;47.402;9.740;2023-05-07T09:36:42;4.70;;;2.63;;
64235;SDS011;50564;47.402;9.740;2023-05-07T09:41:43;1.70;;;1.10;;
64235;SDS011;50564;47.402;9.740;2023-05-07T09:46:53;1.92;;;1.20;;
64235;SDS011;50564;47.402;9.740;2023-05-07T09:52:00;2.95;;;1.40;;
64235;SDS011;50564;47.402;9.740;2023-05-07T09:57:04;2.00;;;1.13;;
64235;SDS011;50564;47.402;9.740;2023-05-07T10:02:06;6.72;;;2.30;;
64235;SDS011;50564;47.402;9.740;2023-05-07T10:07:14;2.67;;;1.73;;
64235;SDS011;50564;47.402;9.740;2023-05-07T10:12:16;2.60;;;1.67;;
64235;SDS011;50564;47.402;9.740;2023-05-07T10:17:18;3.15;;;1.80;;
64235;SDS011;50564;47.402;9.740;2023-05-07T10:22:20;4.40;;;1.90;;
64235;SDS011;50564;47.402;9.740;2023-05-07T10:27:22;3.35;;;2.00;;
64235;SDS011;50564;47.402;9.740;2023-05-07T10:33:09;2.92;;;1.95;;
64235;SDS011;50564;47.402;9.740;2023-05-07T10:38:00;3.80;;;2.20;;
64235;SDS011;50564;47.402;9.740;2023-05-07T10:43:04;2.03;;;1.60;;
64235;SDS011;50564;47.402;9.740;2023-05-07T10:53:20;4.28;;;1.90;;
64235;SDS011;50564;47.402;9.740;2023-05-07T10:58:43;2.30;;;1.77;;
64235;SDS011;50564;47.402;9.740;2023-05-07T11:04:13;3.63;;;2.10;;
64235;SDS011;50564;47.402;9.740;2023-05-07T11:09:20;2.05;;;1.52;;
64235;SDS011;50564;47.402;9.740;2023-05-07T11:14:44;2.75;;;1.95;;
64235;SDS011;50564;47.402;9.740;2023-05-07T11:19:57;3.80;;;2.00;;
64235;SDS011;50564;47.402;9.740;2023-05-07T11:25:08;3.03;;;1.88;;
64235;SDS011;50564;47.402;9.740;2023-05-07T11:30:10;3.70;;;2.03;;
64235;SDS011;50564;47.402;9.740;2023-05-07T11:35:11;3.33;;;1.70;;
64235;SDS011;50564;47.402;9.740;2023-05-07T11:40:12;3.17;;;1.75;;
64235;SDS011;50564;47.402;9.740;2023-05-07T11:45:14;2.75;;;1.45;;
64235;SDS011;50564;47.402;9.740;2023-05-07T11:50:24;2.40;;;1.60;;
64235;SDS011;50564;47.402;9.740;2023-05-07T11:55:25;2.70;;;1.70;;
64235;SDS011;50564;47.402;9.740;2023-05-07T12:00:26;3.33;;;1.42;;
64235;SDS011;50564;47.402;9.740;2023-05-07T12:05:26;2.92;;;1.45;;
64235;SDS011;50564;47.402;9.740;2023-05-07T12:10:28;7.20;;;1.70;;
64235;SDS011;50564;47.402;9.740;2023-05-07T12:15:29;1.35;;;1.15;;
64235;SDS011;50564;47.402;9.740;2023-05-07T12:20:30;1.20;;;1.10;;
64235;SDS011;50564;47.402;9.740;2023-05-07T12:25:31;2.08;;;1.42;;
64235;SDS011;50564;47.402;9.740;2023-05-07T12:30:39;1.38;;;0.98;;
64235;SDS011;50564;47.402;9.740;2023-05-07T12:35:40;1.70;;;1.17;;
64235;SDS011;50564;47.402;9.740;2023-05-07T12:40:45;1.80;;;1.33;;
64235;SDS011;50564;47.402;9.740;2023-05-07T12:45:51;2.80;;;1.27;;
64235;SDS011;50564;47.402;9.740;2023-05-07T12:50:54;1.70;;;1.23;;
64235;SDS011;50564;47.402;9.740;2023-05-07T12:55:56;2.60;;;1.38;;
64235;SDS011;50564;47.402;9.740;2023-05-07T13:01:01;2.08;;;1.20;;
64235;SDS011;50564;47.402;9.740;2023-05-07T13:06:06;3.55;;;1.17;;
64235;SDS011;50564;47.402;9.740;2023-05-07T13:11:09;2.00;;;1.35;;
64235;SDS011;50564;47.402;9.740;2023-05-07T13:16:11;2.33;;;1.38;;
64235;SDS011;50564;47.402;9.740;2023-05-07T13:21:12;1.40;;;1.20;;
64235;SDS011;50564;47.402;9.740;2023-05-07T13:26:13;4.10;;;1.50;;
64235;SDS011;50564;47.402;9.740;2023-05-07T13:31:14;2.17;;;1.63;;
64235;SDS011;50564;47.402;9.740;2023-05-07T13:36:14;1.60;;;1.50;;
64235;SDS011;50564;47.402;9.740;2023-05-07T13:41:15;2.72;;;1.23;;
64235;SDS011;50564;47.402;9.740;2023-05-07T13:46:16;1.67;;;1.00;;
64235;SDS011;50564;47.402;9.740;2023-05-07T13:51:16;1.80;;;1.30;;
64235;SDS011;50564;47.402;9.740;2023-05-07T13:56:18;4.38;;;1.42;;
64235;SDS011;50564;47.402;9.740;2023-05-07T14:01:20;3.20;;;1.33;;
64235;SDS011;50564;47.402;9.740;2023-05-07T14:06:20;5.32;;;1.55;;
64235;SDS011;50564;47.402;9.740;2023-05-07T14:11:23;4.18;;;1.50;;
64235;SDS011;50564;47.402;9.740;2023-05-07T14:16:23;2.80;;;1.50;;
64235;SDS011;50564;47.402;9.740;2023-05-07T14:21:24;4.15;;;1.80;;
64235;SDS011;50564;47.402;9.740;2023-05-07T14:26:25;3.35;;;1.80;;
64235;SDS011;50564;47.402;9.740;2023-05-07T14:31:27;3.50;;;1.73;;
64235;SDS011;50564;47.402;9.740;2023-05-07T14:36:28;2.75;;;1.77;;
64235;SDS011;50564;47.402;9.740;2023-05-07T14:41:30;2.80;;;1.83;;
64235;SDS011;50564;47.402;9.740;2023-05-07T14:46:31;3.55;;;1.65;;
64235;SDS011;50564;47.402;9.740;2023-05-07T14:51:32;4.30;;;2.13;;
64235;SDS011;50564;47.402;9.740;2023-05-07T14:56:33;5.10;;;2.25;;
64235;SDS011;50564;47.402;9.740;2023-05-07T15:01:35;7.43;;;2.30;;
64235;SDS011;50564;47.402;9.740;2023-05-07T15:06:36;3.47;;;2.67;;
64235;SDS011;50564;47.402;9.740;2023-05-07T15:11:37;3.95;;;2.40;;
64235;SDS011;50564;47.402;9.740;2023-05-07T15:16:39;6.00;;;2.65;;
64235;SDS011;50564;47.402;9.740;2023-05-07T15:21:40;4.03;;;2.58;;
64235;SDS011;50564;47.402;9.740;2023-05-07T15:26:40;5.28;;;2.47;;
64235;SDS011;50564;47.402;9.740;2023-05-07T15:31:41;6.03;;;2.88;;
64235;SDS011;50564;47.402;9.740;2023-05-07T15:36:42;7.18;;;2.78;;
64235;SDS011;50564;47.402;9.740;2023-05-07T15:41:43;5.38;;;3.08;;
64235;SDS011;50564;47.402;9.740;2023-05-07T15:46:43;5.60;;;2.90;;
64235;SDS011;50564;47.402;9.740;2023-05-07T15:51:44;5.55;;;3.30;;
64235;SDS011;50564;47.402;9.740;2023-05-07T15:56:44;4.00;;;2.60;;
64235;SDS011;50564;47.402;9.740;2023-05-07T16:01:45;5.13;;;3.25;;
64235;SDS011;50564;47.402;9.740;2023-05-07T16:06:46;4.32;;;3.03;;
64235;SDS011;50564;47.402;9.740;2023-05-07T16:11:47;4.65;;;2.88;;
64235;SDS011;50564;47.402;9.740;2023-05-07T16:16:48;5.82;;;2.90;;
64235;SDS011;50564;47.402;9.740;2023-05-07T16:21:49;4.50;;;2.42;;
64235;SDS011;50564;47.402;9.740;2023-05-07T16:26:50;4.70;;;2.50;;
64235;SDS011;50564;47.402;9.740;2023-05-07T16:31:52;4.47;;;2.50;;
64235;SDS011;50564;47.402;9.740;2023-05-07T16:36:53;3.83;;;2.70;;
64235;SDS011;50564;47.402;9.740;2023-05-07T16:41:53;2.85;;;2.38;;
64235;SDS011;50564;47.402;9.740;2023-05-07T16:46:54;4.10;;;2.90;;
64235;SDS011;50564;47.402;9.740;2023-05-07T16:51:55;5.15;;;2.90;;
64235;SDS011;50564;47.402;9.740;2023-05-07T16:56:55;5.75;;;3.58;;
64235;SDS011;50564;47.402;9.740;2023-05-07T17:01:56;4.03;;;3.53;;
64235;SDS011;50564;47.402;9.740;2023-05-07T17:06:57;6.32;;;4.10;;
64235;SDS011;50564;47.402;9.740;2023-05-07T17:11:58;6.15;;;4.03;;
64235;SDS011;50564;47.402;9.740;2023-05-07T17:16:59;8.90;;;4.85;;
64235;SDS011;50564;47.402;9.740;2023-05-07T17:21:59;4.32;;;3.67;;
64235;SDS011;50564;47.402;9.740;2023-05-07T17:27:00;7.20;;;4.13;;
64235;SDS011;50564;47.402;9.740;2023-05-07T17:32:00;8.68;;;4.53;;
64235;SDS011;50564;47.402;9.740;2023-05-07T17:37:01;7.03;;;4.93;;
64235;SDS011;50564;47.402;9.740;2023-05-07T17:42:02;9.07;;;5.25;;
64235;SDS011;50564;47.402;9.740;2023-05-07T17:47:02;9.02;;;4.43;;
64235;SDS011;50564;47.402;9.740;2023-05-07T17:52:03;8.52;;;4.78;;
64235;SDS011;50564;47.402;9.740;2023-05-07T17:57:04;3.80;;;1.92;;
64235;SDS011;50564;47.402;9.740;2023-05-07T18:02:05;4.05;;;1.52;;
64235;SDS011;50564;47.402;9.740;2023-05-07T18:07:05;4.30;;;1.60;;
64235;SDS011;50564;47.402;9.740;2023-05-07T18:12:06;3.45;;;1.80;;
64235;SDS011;50564;47.402;9.740;2023-05-07T18:17:07;5.30;;;2.28;;
64235;SDS011;50564;47.402;9.740;2023-05-07T18:22:07;3.13;;;1.90;;
64235;SDS011;50564;47.402;9.740;2023-05-07T18:27:08;6.07;;;2.40;;
64235;SDS011;50564;47.402;9.740;2023-05-07T18:32:08;5.47;;;2.17;;
64235;SDS011;50564;47.402;9.740;2023-05-07T18:37:09;3.83;;;1.90;;
64235;SDS011;50564;47.402;9.740;2023-05-07T18:42:10;4.20;;;1.83;;
64235;SDS011;50564;47.402;9.740;2023-05-07T18:47:11;2.42;;;1.98;;
64235;SDS011;50564;47.402;9.740;2023-05-07T18:52:12;3.17;;;1.88;;
64235;SDS011;50564;47.402;9.740;2023-05-07T18:57:15;3.90;;;2.35;;
64235;SDS011;50564;47.402;9.740;2023-05-07T19:02:16;5.15;;;2.25;;
64235;SDS011;50564;47.402;9.740;2023-05-07T19:07:16;5.10;;;2.22;;
64235;SDS011;50564;47.402;9.740;2023-05-07T19:12:17;5.43;;;2.50;;
64235;SDS011;50564;47.402;9.740;2023-05-07T19:17:17;5.75;;;2.40;;
64235;SDS011;50564;47.402;9.740;2023-05-07T19:22:19;3.75;;;2.20;;
64235;SDS011;50564;47.402;9.740;2023-05-07T19:27:19;5.68;;;2.28;;
64235;SDS011;50564;47.402;9.740;2023-05-07T19:32:20;4.60;;;2.58;;
64235;SDS011;50564;47.402;9.740;2023-05-07T19:37:21;5.90;;;2.40;;
64235;SDS011;50564;47.402;9.740;2023-05-07T19:42:24;4.72;;;2.72;;
64235;SDS011;50564;47.402;9.740;2023-05-07T19:47:25;5.95;;;2.45;;
64235;SDS011;50564;47.402;9.740;2023-05-07T19:52:26;7.32;;;2.78;;
64235;SDS011;50564;47.402;9.740;2023-05-07T19:57:26;6.57;;;2.88;;
64235;SDS011;50564;47.402;9.740;2023-05-07T20:02:27;4.95;;;3.00;;
64235;SDS011;50564;47.402;9.740;2023-05-07T20:07:27;4.72;;;3.00;;
64235;SDS011;50564;47.402;9.740;2023-05-07T20:12:28;4.82;;;3.22;;
64235;SDS011;50564;47.402;9.740;2023-05-07T20:17:28;5.30;;;3.00;;
64235;SDS011;50564;47.402;9.740;2023-05-07T20:22:29;4.40;;;2.20;;
64235;SDS011;50564;47.402;9.740;2023-05-07T20:27:33;3.63;;;2.35;;
64235;SDS011;50564;47.402;9.740;2023-05-07T20:32:34;5.90;;;3.47;;
64235;SDS011;50564;47.402;9.740;2023-05-07T20:37:36;5.90;;;4.10;;
64235;SDS011;50564;47.402;9.740;2023-05-07T20:42:37;6.28;;;4.63;;
64235;SDS011;50564;47.402;9.740;2023-05-07T20:47:38;7.40;;;4.70;;
64235;SDS011;50564;47.402;9.740;2023-05-07T20:52:39;6.50;;;5.18;;
64235;SDS011;50564;47.402;9.740;2023-05-07T20:57:40;7.75;;;4.88;;
64235;SDS011;50564;47.402;9.740;2023-05-07T21:02:42;9.85;;;4.03;;
64235;SDS011;50564;47.402;9.740;2023-05-07T21:07:43;7.03;;;2.63;;
64235;SDS011;50564;47.402;9.740;2023-05-07T21:12:44;3.75;;;2.20;;
64235;SDS011;50564;47.402;9.740;2023-05-07T21:17:44;4.40;;;2.10;;
64235;SDS011;50564;47.402;9.740;2023-05-07T21:22:45;4.68;;;1.52;;
64235;SDS011;50564;47.402;9.740;2023-05-07T21:27:45;3.00;;;1.90;;
64235;SDS011;50564;47.402;9.740;2023-05-07T21:32:46;5.55;;;2.05;;
64235;SDS011;50564;47.402;9.740;2023-05-07T21:37:47;4.88;;;2.05;;
64235;SDS011;50564;47.402;9.740;2023-05-07T21:42:47;4.15;;;1.70;;
64235;SDS011;50564;47.402;9.740;2023-05-07T21:47:48;2.58;;;1.73;;
64235;SDS011;50564;47.402;9.740;2023-05-07T21:52:49;4.80;;;1.98;;
64235;SDS011;50564;47.402;9.740;2023-05-07T21:57:49;7.05;;;2.30;;
64235;SDS011;50564;47.402;9.740;2023-05-07T22:02:50;3.15;;;1.85;;
64235;SDS011;50564;47.402;9.740;2023-05-07T22:07:51;3.75;;;1.60;;
64235;SDS011;50564;47.402;9.740;2023-05-07T22:12:51;3.28;;;1.45;;
64235;SDS011;50564;47.402;9.740;2023-05-07T22:17:52;2.53;;;1.60;;
64235;SDS011;50564;47.402;9.740;2023-05-07T22:22:53;2.47;;;1.40;;
64235;SDS011;50564;47.402;9.740;2023-05-07T22:27:54;3.28;;;1.70;;
64235;SDS011;50564;47.402;9.740;2023-05-07T22:32:54;3.10;;;1.67;;
64235;SDS011;50564;47.402;9.740;2023-05-07T22:37:55;2.60;;;1.50;;
64235;SDS011;50564;47.402;9.740;2023-05-07T22:42:55;2.30;;;1.55;;
64235;SDS011;50564;47.402;9.740;2023-05-07T22:47:56;1.85;;;1.52;;
64235;SDS011;50564;47.402;9.740;2023-05-07T22:52:57;4.63;;;1.58;;
64235;SDS011;50564;47.402;9.740;2023-05-07T22:57:57;1.95;;;1.67;;
64235;SDS011;50564;47.402;9.740;2023-05-07T23:02:58;1.98;;;1.70;;
64235;SDS011;50564;47.402;9.740;2023-05-07T23:07:58;4.38;;;2.85;;
64235;SDS011;50564;47.402;9.740;2023-05-07T23:12:59;4.07;;;2.85;;
64235;SDS011;50564;47.402;9.740;2023-05-07T23:18:00;3.88;;;3.22;;
64235;SDS011;50564;47.402;9.740;2023-05-07T23:23:01;4.38;;;3.08;;
64235;SDS011;50564;47.402;9.740;2023-05-07T23:28:01;1.85;;;1.67;;
64235;SDS011;50564;47.402;9.740;2023-05-07T23:33:02;4.72;;;2.25;;
64235;SDS011;50564;47.402;9.740;2023-05-07T23:38:03;2.35;;;1.52;;
64235;SDS011;50564;47.402;9.740;2023-05-07T23:43:03;4.05;;;2.22;;
64235;SDS011;50564;47.402;9.740;2023-05-07T23:48:04;2.33;;;1.70;;
64235;SDS011;50564;47.402;9.740;2023-05-07T23:53:05;2.72;;;1.83;;
64235;SDS011;50564;47.402;9.740;2023-05-07T23:58:05;5.57;;;4.15;;
